createdAt,value
2022-11-02T13:44:30.648Z,14.00
2022-11-02T13:47:26.935Z,14.40
2022-11-02T13:50:03.478Z,14.63
2022-11-02T13:52:49.346Z,14.43
2022-11-02T13:55:50.362Z,14.20
2022-11-02T13:58:54.228Z,14.17
2022-11-02T14:01:53.419Z,14.20
2022-11-02T14:04:56.556Z,13.57
2022-11-02T14:07:47.405Z,14.17
2022-11-02T14:10:40.603Z,14.40
2022-11-02T14:13:22.184Z,13.63
2022-11-02T14:15:56.384Z,13.90
2022-11-02T14:18:34.178Z,14.10
2022-11-02T14:21:51.557Z,13.80
2022-11-02T14:25:11.249Z,13.60
2022-11-02T14:27:48.472Z,14.00
2022-11-02T14:30:44.499Z,12.03
2022-11-02T14:33:49.686Z,13.60
2022-11-02T14:36:58.370Z,13.40
2022-11-02T14:39:57.352Z,13.40
2022-11-02T14:43:09.599Z,13.50
2022-11-02T14:46:06.417Z,13.40
2022-11-02T14:48:58.367Z,13.43
2022-11-02T14:51:52.047Z,14.63
2022-11-02T14:54:51.671Z,14.00
2022-11-02T14:57:58.732Z,13.77
2022-11-02T15:01:13.662Z,14.10
2022-11-02T15:04:02.277Z,14.20
2022-11-02T15:06:49.354Z,13.77
2022-11-02T15:10:06.781Z,14.33
2022-11-02T15:12:49.821Z,13.73
2022-11-02T15:15:53.273Z,14.70
2022-11-02T15:18:32.660Z,14.90
2022-11-02T15:21:34.756Z,15.27
2022-11-02T15:24:45.769Z,16.70
2022-11-02T15:27:48.322Z,17.00
2022-11-02T15:30:31.246Z,15.17
2022-11-02T15:33:23.151Z,15.70
2022-11-02T15:36:20.842Z,15.63
2022-11-02T15:39:20.737Z,14.40
2022-11-02T15:42:24.272Z,15.37
2022-11-02T15:45:49.493Z,15.20
2022-11-02T15:49:07.093Z,14.53
2022-11-02T15:52:13.539Z,14.40
2022-11-02T15:55:10.923Z,14.60
2022-11-02T15:58:10.646Z,15.50
2022-11-02T16:01:45.039Z,15.70
2022-11-02T16:04:56.335Z,15.00
2022-11-02T16:08:10.901Z,14.80
2022-11-02T16:10:56.334Z,16.10
2022-11-02T16:14:09.087Z,17.00
2022-11-02T16:17:11.378Z,20.30
2022-11-02T16:20:29.350Z,19.43
2022-11-02T16:23:22.970Z,18.70
2022-11-02T16:26:09.806Z,16.60
2022-11-02T16:28:52.755Z,16.43
2022-11-02T16:32:05.770Z,16.07
2022-11-02T16:35:13.493Z,16.30
2022-11-02T16:37:59.345Z,16.40
2022-11-02T16:46:30.745Z,17.00
2022-11-02T16:49:17.492Z,17.00
2022-11-02T16:52:38.796Z,17.10
2022-11-02T16:55:51.586Z,16.60
2022-11-02T16:59:06.255Z,16.30
2022-11-02T17:02:02.441Z,17.03
2022-11-02T17:04:42.792Z,17.20
2022-11-02T17:07:33.814Z,18.50
2022-11-02T17:16:35.465Z,20.27
2022-11-02T17:20:03.665Z,20.33
2022-11-02T17:23:12.713Z,20.07
2022-11-02T17:26:07.797Z,24.93
2022-11-02T17:29:04.971Z,25.70
2022-11-02T17:31:51.610Z,28.10
2022-11-02T17:34:51.823Z,34.83
2022-11-02T17:38:03.289Z,27.60
2022-11-02T17:41:02.119Z,25.60
2022-11-02T17:43:42.652Z,20.10
2022-11-02T17:46:41.691Z,20.57
2022-11-02T17:49:50.465Z,19.07
2022-11-02T17:52:47.393Z,19.30
2022-11-02T17:55:44.492Z,19.20
2022-11-02T17:59:24.910Z,19.40
2022-11-02T18:01:42.146Z,20.13
2022-11-02T18:04:34.770Z,21.83
2022-11-02T18:07:32.627Z,21.33
2022-11-02T18:10:52.705Z,21.53
2022-11-02T18:13:34.845Z,20.67
2022-11-02T18:16:14.118Z,21.23
2022-11-02T18:18:48.554Z,19.70
2022-11-02T18:21:44.090Z,18.93
2022-11-02T18:24:28.196Z,18.77
2022-11-02T18:27:50.640Z,18.77
2022-11-02T18:30:43.180Z,18.50
2022-11-02T18:33:24.355Z,18.27
2022-11-02T18:36:24.472Z,19.53
2022-11-02T18:39:07.825Z,20.13
2022-11-02T18:42:39.312Z,19.30
2022-11-02T18:48:59.298Z,22.53
2022-11-02T18:51:45.959Z,27.20
2022-11-02T18:54:47.654Z,26.23
2022-11-02T18:57:39.837Z,30.30
2022-11-02T19:00:21.940Z,30.00
2022-11-02T19:03:23.694Z,25.93
2022-11-02T19:06:21.246Z,25.20
2022-11-02T19:09:27.685Z,23.77
2022-11-02T19:15:28.171Z,24.10
2022-11-02T19:18:34.428Z,25.27
2022-11-02T19:21:34.932Z,33.10
2022-11-02T19:24:50.357Z,37.17
2022-11-02T19:27:32.113Z,26.63
2022-11-02T19:30:30.756Z,26.07
2022-11-02T19:33:15.620Z,23.60
2022-11-02T19:35:59.669Z,15.60
2022-11-02T19:39:10.044Z,12.70
2022-11-02T19:42:07.729Z,14.07
2022-11-02T19:48:11.668Z,13.40
2022-11-02T19:51:10.886Z,13.90
2022-11-02T19:57:32.161Z,14.60
2022-11-02T20:00:29.252Z,13.70
2022-11-02T20:03:10.116Z,12.67
2022-11-02T20:05:47.209Z,12.70
2022-11-02T20:08:40.679Z,12.60
2022-11-02T20:15:39.619Z,15.80
2022-11-02T20:22:21.615Z,13.23
2022-11-02T20:28:57.337Z,13.00
2022-11-02T20:31:49.333Z,12.90
2022-11-02T20:34:26.727Z,13.10
2022-11-02T20:37:29.211Z,13.57
2022-11-02T20:40:27.493Z,13.00
2022-11-02T20:43:03.286Z,13.30
2022-11-02T20:45:34.934Z,12.70
2022-11-02T20:48:17.931Z,13.33
2022-11-02T20:50:46.746Z,12.80
2022-11-02T20:53:15.484Z,14.30
2022-11-02T20:55:43.702Z,12.10
2022-11-02T20:58:12.182Z,15.33
2022-11-02T21:00:40.529Z,13.30
2022-11-02T21:03:12.750Z,12.90
2022-11-02T21:06:13.275Z,13.77
2022-11-02T21:09:37.068Z,13.17
2022-11-02T21:12:28.125Z,14.03
2022-11-02T21:14:57.977Z,13.53
2022-11-02T21:17:26.458Z,13.60
2022-11-02T21:23:26.727Z,13.80
2022-11-02T21:26:10.393Z,14.40
2022-11-02T21:28:45.139Z,15.10
2022-11-02T21:31:26.497Z,13.87
2022-11-02T21:34:00.083Z,13.80
2022-11-02T21:36:28.541Z,13.63
2022-11-02T21:39:06.143Z,14.00
2022-11-02T21:41:45.208Z,13.60
2022-11-02T21:44:17.416Z,13.83
2022-11-02T21:57:25.526Z,14.30
2022-11-02T21:59:58.918Z,18.10
2022-11-02T22:02:27.496Z,17.40
2022-11-02T22:04:59.613Z,18.43
2022-11-02T22:07:52.539Z,18.17
2022-11-02T22:10:25.928Z,18.97
2022-11-02T22:13:11.651Z,19.17
2022-11-02T22:15:40.044Z,19.90
2022-11-02T22:18:12.201Z,19.90
2022-11-02T22:20:47.798Z,20.97
2022-11-02T22:23:17.968Z,19.90
2022-11-02T22:25:59.253Z,19.10
2022-11-02T22:28:42.253Z,20.60
2022-11-02T22:31:15.904Z,19.80
2022-11-02T22:33:47.719Z,19.47
2022-11-02T22:36:18.522Z,21.60
2022-11-02T22:38:48.443Z,20.80
2022-11-02T22:41:20.318Z,21.10
2022-11-02T22:43:49.211Z,20.50
2022-11-02T22:46:17.544Z,20.53
2022-11-02T22:48:45.667Z,20.23
2022-11-02T22:51:14.879Z,22.07
2022-11-02T22:53:43.043Z,21.20
2022-11-02T22:56:13.091Z,19.50
2022-11-02T22:58:44.411Z,20.00
2022-11-02T23:01:16.404Z,20.90
2022-11-02T23:03:44.983Z,20.90
2022-11-02T23:06:14.141Z,19.97
2022-11-02T23:08:44.787Z,19.30
2022-11-02T23:11:23.249Z,20.23
2022-11-02T23:13:55.931Z,18.90
2022-11-02T23:16:26.414Z,18.67
2022-11-02T23:19:27.175Z,19.30
2022-11-02T23:22:15.600Z,18.50
2022-11-02T23:25:03.058Z,19.07
2022-11-02T23:27:31.985Z,20.20
2022-11-02T23:30:30.619Z,18.57
2022-11-02T23:33:01.321Z,18.03
2022-11-02T23:35:46.680Z,20.13
2022-11-02T23:38:14.868Z,19.67
2022-11-02T23:40:42.902Z,18.20
2022-11-02T23:43:15.889Z,18.33
2022-11-02T23:45:49.850Z,20.70
2022-11-02T23:48:24.719Z,19.67
2022-11-02T23:51:10.458Z,18.83
2022-11-02T23:54:03.640Z,18.30
2022-11-02T23:56:48.696Z,17.40
2022-11-02T23:59:20.059Z,19.87
